Time,TemperatureF,DewpointF,PressureIn,WindDirection,WindDirectionDegrees,WindSpeedMPH,WindSpeedGustMPH,Humidity,HourlyPrecipIn,Conditions,Clouds,dailyrainin,SoftwareType,DateUTC
2013-08-06 00:01:00,71.2,61.4,28.73,SSW,203,0.0,0.0,71,0.00,,BKN055,0.00,VWS V14.00,2013-08-06 05:01:00,
2013-08-06 00:06:00,71.1,61.2,28.73,SSW,203,0.0,0.0,71,0.00,,BKN055,0.00,VWS V14.00,2013-08-06 05:06:00,
2013-08-06 00:11:00,70.9,60.6,28.73,SSW,203,0.0,0.0,70,0.00,,BKN055,0.00,VWS V14.00,2013-08-06 05:11:00,
2013-08-06 00:16:00,70.9,60.6,28.73,SSW,203,0.0,0.0,70,0.00,,BKN055,0.00,VWS V14.00,2013-08-06 05:16:00,
2013-08-06 00:21:00,70.7,60.8,28.73,SSW,203,0.0,0.0,71,0.00,,BKN055,0.00,VWS V14.00,2013-08-06 05:21:00,
2013-08-06 00:26:00,70.7,60.8,28.76,SSW,203,0.0,0.0,71,0.00,,BKN055,0.00,VWS V14.00,2013-08-06 05:26:00,
2013-08-06 00:31:00,70.7,61.6,28.76,SSW,203,0.0,0.0,73,0.00,,BKN055,0.00,VWS V14.00,2013-08-06 05:31:00,
2013-08-06 00:36:00,70.5,61.5,28.76,SSW,203,0.0,0.0,73,0.00,,BKN055,0.00,VWS V14.00,2013-08-06 05:36:00,
2013-08-06 00:41:00,70.3,61.3,28.76,SSW,203,0.0,0.0,73,0.00,,BKN055,0.00,VWS V14.00,2013-08-06 05:41:00,
2013-08-06 00:46:00,70.3,61.7,28.76,SSW,203,0.0,0.0,74,0.00,,BKN055,0.00,VWS V14.00,2013-08-06 05:46:00,
2013-08-06 00:51:00,70.2,61.5,28.76,SSW,203,0.0,0.0,74,0.00,,BKN055,0.00,VWS V14.00,2013-08-06 05:51:00,
2013-08-06 00:56:00,70.0,61.3,28.76,SSW,203,0.0,0.0,74,0.00,,BKN055,0.00,VWS V14.00,2013-08-06 05:56:00,
2013-08-06 01:01:00,70.0,61.3,28.76,SSW,203,0.0,0.0,74,0.00,,SCT055,0.00,VWS V14.00,2013-08-06 06:01:00,
2013-08-06 01:06:00,70.0,61.7,28.76,SSW,203,0.0,0.0,75,0.00,,SCT055,0.00,VWS V14.00,2013-08-06 06:06:00,
2013-08-06 01:11:00,69.8,61.5,28.73,SSW,203,0.0,0.0,75,0.00,,SCT055,0.00,VWS V14.00,2013-08-06 06:11:00,
2013-08-06 01:16:00,69.8,61.5,28.73,SSW,203,0.0,0.0,75,0.00,,SCT055,0.00,VWS V14.00,2013-08-06 06:16:00,
2013-08-06 01:21:00,70.0,62.1,28.73,SSW,203,0.0,0.0,76,0.00,,SCT055,0.00,VWS V14.00,2013-08-06 06:21:00,
2013-08-06 01:26:00,70.3,62.4,28.73,SSW,203,0.0,0.0,76,0.00,,SCT055,0.00,VWS V14.00,2013-08-06 06:26:00,
2013-08-06 01:31:00,70.2,62.6,28.73,SSW,203,0.0,0.0,77,0.00,,SCT055,0.00,VWS V14.00,2013-08-06 06:31:00,
2013-08-06 01:36:00,70.2,62.6,28.73,SSW,203,0.0,0.0,77,0.00,,SCT055,0.00,VWS V14.00,2013-08-06 06:36:00,
2013-08-06 01:41:00,70.2,62.6,28.73,SSW,203,0.0,0.0,77,0.00,,SCT055,0.00,VWS V14.00,2013-08-06 06:41:00,
2013-08-06 01:46:00,70.2,62.6,28.73,SSW,203,0.0,0.0,77,0.00,,SCT055,0.00,VWS V14.00,2013-08-06 06:46:00,
2013-08-06 01:51:00,70.2,62.6,28.73,SSW,203,0.0,0.0,77,0.00,,SCT055,0.00,VWS V14.00,2013-08-06 06:51:00,
2013-08-06 01:56:00,70.0,62.5,28.73,SSW,203,0.0,0.0,77,0.00,,SCT055,0.00,VWS V14.00,2013-08-06 06:56:00,
2013-08-06 02:01:00,70.0,62.5,28.73,SSW,203,0.0,0.0,77,0.00,,BKN060,0.00,VWS V14.00,2013-08-06 07:01:00,
2013-08-06 02:06:00,69.8,62.3,28.73,SSW,203,0.0,0.0,77,0.00,,BKN060,0.00,VWS V14.00,2013-08-06 07:06:00,
2013-08-06 02:11:00,69.8,62.6,28.73,SSW,203,0.0,0.0,78,0.00,,BKN060,0.00,VWS V14.00,2013-08-06 07:11:00,
2013-08-06 02:16:00,69.6,62.8,28.73,SSW,203,0.0,0.0,79,0.00,,BKN060,0.00,VWS V14.00,2013-08-06 07:16:00,
2013-08-06 02:21:00,69.3,62.1,28.73,SSW,203,0.0,0.0,78,0.00,,BKN060,0.00,VWS V14.00,2013-08-06 07:21:00,
2013-08-06 02:26:00,69.3,62.5,28.73,SSW,203,0.0,0.0,79,0.00,,BKN060,0.00,VWS V14.00,2013-08-06 07:26:00,
2013-08-06 02:31:00,69.4,63.0,28.73,SSW,203,0.0,0.0,80,0.00,,BKN060,0.00,VWS V14.00,2013-08-06 07:31:00,
2013-08-06 02:36:00,69.6,63.2,28.73,SSW,203,0.0,0.0,80,0.00,,BKN060,0.00,VWS V14.00,2013-08-06 07:36:00,
2013-08-06 02:41:00,69.6,63.5,28.73,SSW,203,0.0,0.0,81,0.00,,BKN060,0.00,VWS V14.00,2013-08-06 07:41:00,
2013-08-06 02:46:00,69.6,63.9,28.73,SSW,203,0.0,0.0,82,0.00,,BKN060,0.00,VWS V14.00,2013-08-06 07:46:00,
2013-08-06 02:51:00,69.3,63.5,28.73,SSW,203,0.0,0.0,82,0.00,,BKN060,0.00,VWS V14.00,2013-08-06 07:51:00,
2013-08-06 02:56:00,69.1,63.4,28.73,SSW,203,0.0,0.0,82,0.00,,BKN060,0.00,VWS V14.00,2013-08-06 07:56:00,
2013-08-06 03:01:00,69.1,63.4,28.70,SSW,203,0.0,0.0,82,0.00,,BKN045,0.00,VWS V14.00,2013-08-06 08:01:00,
2013-08-06 03:06:00,68.9,63.2,28.70,SSW,203,0.0,0.0,82,0.00,,BKN045,0.00,VWS V14.00,2013-08-06 08:06:00,
2013-08-06 03:11:00,68.7,63.0,28.70,SSW,203,0.0,0.0,82,0.00,,BKN045,0.00,VWS V14.00,2013-08-06 08:11:00,
2013-08-06 03:16:00,68.7,63.0,28.70,SSW,203,0.0,0.0,82,0.00,,BKN045,0.00,VWS V14.00,2013-08-06 08:16:00,
2013-08-06 03:21:00,68.5,62.8,28.70,SSW,203,0.0,0.0,82,0.00,,BKN045,0.00,VWS V14.00,2013-08-06 08:21:00,
2013-08-06 03:26:00,68.7,63.0,28.70,SSW,203,0.0,0.0,82,0.00,,BKN045,0.00,VWS V14.00,2013-08-06 08:26:00,
2013-08-06 03:31:00,69.1,63.7,28.70,SSW,203,0.0,0.0,83,0.00,,BKN045,0.00,VWS V14.00,2013-08-06 08:31:00,
2013-08-06 03:36:00,68.7,63.3,28.70,SSW,203,0.0,0.0,83,0.00,,BKN045,0.00,VWS V14.00,2013-08-06 08:36:00,
2013-08-06 03:41:00,68.4,62.7,28.70,SSW,203,0.0,0.0,82,0.00,,BKN045,0.00,VWS V14.00,2013-08-06 08:41:00,
2013-08-06 03:46:00,68.2,62.5,28.70,SSW,203,0.0,0.0,82,0.00,,BKN045,0.00,VWS V14.00,2013-08-06 08:46:00,
2013-08-06 03:51:00,68.0,62.7,28.70,SSW,203,0.0,0.0,83,0.00,,BKN045,0.00,VWS V14.00,2013-08-06 08:51:00,
2013-08-06 03:56:00,67.8,62.5,28.70,SSW,203,0.0,0.0,83,0.00,,BKN045,0.00,VWS V14.00,2013-08-06 08:56:00,
2013-08-06 04:01:00,67.8,62.5,28.70,SSW,203,0.0,0.0,83,0.00,,BKN039,0.00,VWS V14.00,2013-08-06 09:01:00,
2013-08-06 04:06:00,67.8,62.5,28.70,SSW,203,0.0,0.0,83,0.00,,BKN039,0.00,VWS V14.00,2013-08-06 09:06:00,
2013-08-06 04:11:00,68.0,62.7,28.70,SSW,203,0.0,0.0,83,0.00,,BKN039,0.00,VWS V14.00,2013-08-06 09:11:00,
2013-08-06 04:16:00,68.0,62.7,28.70,SSW,203,0.0,0.0,83,0.00,,BKN039,0.00,VWS V14.00,2013-08-06 09:16:00,
2013-08-06 04:21:00,67.8,62.8,28.70,SSW,203,0.0,0.0,84,0.00,,BKN039,0.00,VWS V14.00,2013-08-06 09:21:00,
2013-08-06 04:26:00,67.6,62.6,28.70,SSW,203,0.0,0.0,84,0.00,,BKN039,0.00,VWS V14.00,2013-08-06 09:26:00,
2013-08-06 04:31:00,67.5,62.5,28.70,SSW,203,0.0,0.0,84,0.00,,BKN039,0.00,VWS V14.00,2013-08-06 09:31:00,
2013-08-06 04:36:00,67.3,62.3,28.70,SSW,203,0.0,0.0,84,0.00,,BKN039,0.00,VWS V14.00,2013-08-06 09:36:00,
2013-08-06 04:41:00,67.8,63.2,28.70,SSW,203,0.0,0.0,85,0.00,,BKN039,0.00,VWS V14.00,2013-08-06 09:41:00,
2013-08-06 04:46:00,68.0,63.3,28.70,SSW,203,0.0,0.0,85,0.00,,BKN039,0.00,VWS V14.00,2013-08-06 09:46:00,
2013-08-06 04:51:00,68.0,63.3,28.70,SSW,203,0.0,0.0,85,0.00,,BKN039,0.00,VWS V14.00,2013-08-06 09:51:00,
2013-08-06 04:56:00,67.8,63.2,28.70,SSW,203,0.0,0.0,85,0.00,,BKN039,0.00,VWS V14.00,2013-08-06 09:56:00,
2013-08-06 05:01:00,67.6,63.0,28.70,SSW,203,0.0,0.0,85,0.00,,SCT037,0.00,VWS V14.00,2013-08-06 10:01:00,
2013-08-06 05:06:00,67.5,62.8,28.70,SSW,203,0.0,0.0,85,0.00,,SCT037,0.00,VWS V14.00,2013-08-06 10:06:00,
2013-08-06 05:11:00,67.3,62.6,28.70,SSW,203,0.0,0.0,85,0.00,,SCT037,0.00,VWS V14.00,2013-08-06 10:11:00,
2013-08-06 05:16:00,67.6,63.3,28.70,SSW,203,0.0,0.0,86,0.00,,SCT037,0.00,VWS V14.00,2013-08-06 10:16:00,
2013-08-06 05:21:00,67.3,62.6,28.70,SSW,203,0.0,0.0,85,0.00,,SCT037,0.00,VWS V14.00,2013-08-06 10:21:00,
2013-08-06 05:26:00,67.1,62.5,28.70,SSW,203,0.0,0.0,85,0.00,,SCT037,0.00,VWS V14.00,2013-08-06 10:26:00,
2013-08-06 05:31:00,67.1,62.8,28.70,SSW,203,0.0,0.0,86,0.00,,SCT037,0.00,VWS V14.00,2013-08-06 10:31:00,
2013-08-06 05:36:00,67.3,63.0,28.70,SSW,203,0.0,0.0,86,0.00,,SCT037,0.00,VWS V14.00,2013-08-06 10:36:00,
2013-08-06 05:41:00,67.1,62.5,28.70,SSW,203,0.0,0.0,85,0.00,,SCT037,0.00,VWS V14.00,2013-08-06 10:41:00,
2013-08-06 05:46:00,67.3,63.0,28.70,SSW,203,0.0,0.0,86,0.00,,SCT037,0.00,VWS V14.00,2013-08-06 10:46:00,
2013-08-06 05:51:00,67.5,63.1,28.70,SSW,203,0.0,0.0,86,0.00,,SCT037,0.00,VWS V14.00,2013-08-06 10:51:00,
2013-08-06 05:56:00,67.5,63.1,28.70,SSW,203,0.0,0.0,86,0.00,,SCT037,0.00,VWS V14.00,2013-08-06 10:56:00,
2013-08-06 06:01:00,67.1,62.8,28.70,SSW,203,0.0,0.0,86,0.00,,FEW250,0.00,VWS V14.00,2013-08-06 11:01:00,
2013-08-06 06:06:00,66.7,62.4,28.70,SSW,203,0.0,0.0,86,0.00,,FEW250,0.00,VWS V14.00,2013-08-06 11:06:00,
2013-08-06 06:11:00,66.6,62.2,28.70,SSW,203,0.0,0.0,86,0.00,,FEW250,0.00,VWS V14.00,2013-08-06 11:11:00,
2013-08-06 06:16:00,66.6,62.2,28.70,SSW,203,0.0,0.0,86,0.00,,FEW250,0.00,VWS V14.00,2013-08-06 11:16:00,
2013-08-06 06:21:00,66.6,62.2,28.70,SSW,203,0.0,0.0,86,0.00,,FEW250,0.00,VWS V14.00,2013-08-06 11:21:00,
2013-08-06 06:26:00,66.6,62.2,28.70,SSW,203,0.0,0.0,86,0.00,,FEW250,0.00,VWS V14.00,2013-08-06 11:26:00,
2013-08-06 06:31:00,66.6,62.2,28.70,SSW,203,0.0,0.0,86,0.00,,FEW250,0.00,VWS V14.00,2013-08-06 11:31:00,
2013-08-06 06:36:00,66.6,62.6,28.70,SSW,203,0.0,0.0,87,0.00,,FEW250,0.00,VWS V14.00,2013-08-06 11:36:00,
2013-08-06 06:41:00,66.6,62.6,28.70,SSW,203,0.0,0.0,87,0.00,,FEW250,0.00,VWS V14.00,2013-08-06 11:41:00,
2013-08-06 06:46:00,66.9,62.9,28.70,SSW,203,0.0,0.0,87,0.00,,FEW250,0.00,VWS V14.00,2013-08-06 11:46:00,
2013-08-06 06:51:00,67.1,63.1,28.70,SSW,203,0.0,0.0,87,0.00,,FEW250,0.00,VWS V14.00,2013-08-06 11:51:00,
2013-08-06 06:56:00,67.6,64.0,28.70,SSW,203,0.0,0.0,88,0.00,,FEW250,0.00,VWS V14.00,2013-08-06 11:56:00,
2013-08-06 07:01:00,67.8,64.5,28.70,SSW,203,0.0,0.0,89,0.00,,SCT250,0.00,VWS V14.00,2013-08-06 12:01:00,
2013-08-06 07:06:00,68.2,64.5,28.70,SSW,203,0.0,0.0,88,0.00,,SCT250,0.00,VWS V14.00,2013-08-06 12:06:00,
2013-08-06 07:11:00,68.2,64.5,28.73,SSW,203,0.0,0.0,88,0.00,,SCT250,0.00,VWS V14.00,2013-08-06 12:11:00,
2013-08-06 07:16:00,68.5,64.8,28.73,SSW,203,0.0,0.0,88,0.00,,SCT250,0.00,VWS V14.00,2013-08-06 12:16:00,
2013-08-06 07:21:00,69.3,65.9,28.73,SSW,203,0.0,0.0,89,0.00,,SCT250,0.00,VWS V14.00,2013-08-06 12:21:00,
2013-08-06 07:26:00,69.8,66.1,28.73,SSW,203,0.0,0.0,88,0.00,,SCT250,0.00,VWS V14.00,2013-08-06 12:26:00,
2013-08-06 07:31:00,70.3,66.9,28.73,SSW,203,0.0,0.0,89,0.00,,BKN250,0.00,VWS V14.00,2013-08-06 12:31:00,
2013-08-06 07:36:00,70.7,67.3,28.73,SSW,203,0.0,0.0,89,0.00,,BKN250,0.00,VWS V14.00,2013-08-06 12:36:00,
2013-08-06 07:41:00,70.9,67.5,28.73,WSW,243,0.0,0.0,89,0.00,,BKN250,0.00,VWS V14.00,2013-08-06 12:41:00,
2013-08-06 07:46:00,71.6,67.9,28.76,WSW,243,0.0,0.0,88,0.00,,BKN250,0.00,VWS V14.00,2013-08-06 12:46:00,
2013-08-06 07:51:00,72.3,68.9,28.76,WSW,243,0.0,0.0,89,0.00,,BKN031,0.00,VWS V14.00,2013-08-06 12:51:00,
2013-08-06 07:56:00,73.8,70.7,28.76,WSW,243,0.0,0.0,90,0.00,,BKN031,0.00,VWS V14.00,2013-08-06 12:56:00,
2013-08-06 08:01:00,76.6,73.5,28.76,WSW,243,0.0,0.0,90,0.00,,BKN250,0.00,VWS V14.00,2013-08-06 13:01:00,
2013-08-06 08:06:00,79.5,76.0,28.76,WSW,243,0.0,0.0,89,0.00,,BKN250,0.00,VWS V14.00,2013-08-06 13:06:00,
2013-08-06 08:11:00,79.2,73.9,28.76,WSW,243,0.0,0.0,84,0.00,,BKN250,0.00,VWS V14.00,2013-08-06 13:11:00,
2013-08-06 08:16:00,78.4,71.4,28.76,WSW,243,0.0,0.0,79,0.00,,BKN250,0.00,VWS V14.00,2013-08-06 13:16:00,
2013-08-06 08:21:00,77.4,69.6,28.76,WSW,243,0.0,0.0,77,0.00,,BKN250,0.00,VWS V14.00,2013-08-06 13:21:00,
2013-08-06 08:26:00,77.0,68.9,28.76,WSW,243,0.0,0.0,76,0.00,,BKN250,0.00,VWS V14.00,2013-08-06 13:26:00,
2013-08-06 08:31:00,76.3,65.8,28.76,WSW,243,0.0,0.0,70,0.00,,BKN250,0.00,VWS V14.00,2013-08-06 13:31:00,
2013-08-06 08:36:00,75.7,64.9,28.76,WSW,243,0.0,0.0,69,0.00,,BKN250,0.00,VWS V14.00,2013-08-06 13:36:00,
2013-08-06 08:41:00,75.0,63.3,28.76,WSW,243,0.0,0.0,67,0.00,,BKN250,0.00,VWS V14.00,2013-08-06 13:41:00,
2013-08-06 08:46:00,75.0,63.3,28.76,WSW,243,0.0,0.0,67,0.00,,BKN250,0.00,VWS V14.00,2013-08-06 13:46:00,
2013-08-06 08:51:00,74.8,63.6,28.76,WSW,243,0.0,0.0,68,0.00,,BKN250,0.00,VWS V14.00,2013-08-06 13:51:00,
2013-08-06 08:56:00,74.7,64.2,28.76,WSW,243,0.0,0.0,70,0.00,,BKN250,0.00,VWS V14.00,2013-08-06 13:56:00,
2013-08-06 09:01:00,74.5,64.5,28.76,WSW,243,0.0,0.0,71,0.00,,BKN250,0.00,VWS V14.00,2013-08-06 14:01:00,
2013-08-06 09:06:00,74.3,64.7,28.76,WSW,243,0.0,0.0,72,0.00,,OVC300,0.00,VWS V14.00,2013-08-06 14:06:00,
2013-08-06 09:11:00,74.3,65.1,28.76,WSW,243,0.0,0.0,73,0.00,,OVC300,0.00,VWS V14.00,2013-08-06 14:11:00,
2013-08-06 09:16:00,74.3,65.1,28.76,WSW,243,0.0,0.0,73,0.00,,OVC300,0.00,VWS V14.00,2013-08-06 14:16:00,
2013-08-06 09:21:00,74.3,64.7,28.76,WSW,243,0.0,0.0,72,0.00,,OVC300,0.00,VWS V14.00,2013-08-06 14:21:00,
2013-08-06 09:26:00,73.9,62.7,28.76,WSW,243,0.0,0.0,68,0.00,,OVC300,0.00,VWS V14.00,2013-08-06 14:26:00,
2013-08-06 09:31:00,74.1,62.5,28.76,WSW,243,0.0,0.0,67,0.00,,OVC300,0.00,VWS V14.00,2013-08-06 14:31:00,
2013-08-06 09:36:00,74.3,63.1,28.76,WSW,243,0.0,0.0,68,0.00,,OVC300,0.00,VWS V14.00,2013-08-06 14:36:00,
2013-08-06 09:41:00,74.7,63.4,28.76,WSW,243,0.0,0.0,68,0.00,,OVC300,0.00,VWS V14.00,2013-08-06 14:41:00,
2013-08-06 09:46:00,74.8,62.7,28.76,WSW,243,0.0,0.0,66,0.00,,OVC300,0.00,VWS V14.00,2013-08-06 14:46:00,
2013-08-06 09:51:00,75.2,62.2,28.76,WSW,243,0.0,0.0,64,0.00,,OVC300,0.00,VWS V14.00,2013-08-06 14:51:00,
2013-08-06 09:56:00,75.7,62.7,28.76,WSW,243,0.0,0.0,64,0.00,,OVC300,0.00,VWS V14.00,2013-08-06 14:56:00,
2013-08-06 10:01:00,75.9,59.1,28.79,WSW,243,0.0,0.0,56,0.00,,OVC200,0.00,VWS V14.00,2013-08-06 15:01:00,
2013-08-06 10:06:00,76.6,60.3,28.79,WSW,243,0.0,0.0,57,0.00,,OVC200,0.00,VWS V14.00,2013-08-06 15:06:00,
2013-08-06 10:11:00,77.2,57.1,28.76,WSW,243,0.0,0.0,50,0.00,,OVC200,0.00,VWS V14.00,2013-08-06 15:11:00,
2013-08-06 10:16:00,77.7,54.7,28.76,WSW,243,0.0,2.7,45,0.00,,OVC200,0.00,VWS V14.00,2013-08-06 15:16:00,
2013-08-06 10:21:00,78.1,53.8,28.76,WSW,243,2.7,2.7,43,0.00,,OVC200,0.00,VWS V14.00,2013-08-06 15:21:00,
2013-08-06 10:26:00,78.8,53.1,28.76,WSW,243,0.0,3.1,41,0.00,,OVC200,0.00,VWS V14.00,2013-08-06 15:26:00,
2013-08-06 10:31:00,80.1,54.3,28.76,WSW,243,0.0,0.0,41,0.00,,OVC200,0.00,VWS V14.00,2013-08-06 15:31:00,
2013-08-06 10:36:00,81.3,52.6,28.76,WSW,256,0.0,0.0,37,0.00,,OVC200,0.00,VWS V14.00,2013-08-06 15:36:00,
2013-08-06 10:41:00,82.4,51.2,28.76,WSW,257,0.0,0.0,34,0.00,,OVC200,0.00,VWS V14.00,2013-08-06 15:41:00,
2013-08-06 10:46:00,82.9,51.7,28.76,SE,124,2.7,3.1,34,0.00,,OVC200,0.00,VWS V14.00,2013-08-06 15:46:00,
2013-08-06 10:51:00,83.5,51.4,28.76,SE,124,0.0,0.0,33,0.00,,OVC200,0.00,VWS V14.00,2013-08-06 15:51:00,
2013-08-06 10:56:00,83.5,50.5,28.76,SE,124,0.0,0.0,32,0.00,,OVC200,0.00,VWS V14.00,2013-08-06 15:56:00,
2013-08-06 11:01:00,82.2,50.3,28.76,NE,44,2.7,4.0,33,0.00,,OVC260,0.00,VWS V14.00,2013-08-06 16:01:00,
2013-08-06 11:06:00,82.8,50.8,28.76,NNW,331,0.0,4.0,33,0.00,,OVC260,0.00,VWS V14.00,2013-08-06 16:06:00,
2013-08-06 11:11:00,83.5,51.4,28.76,NNW,331,0.0,0.0,33,0.00,,OVC260,0.00,VWS V14.00,2013-08-06 16:11:00,
2013-08-06 11:16:00,85.1,50.2,28.76,East,100,0.0,0.0,30,0.00,,OVC260,0.00,VWS V14.00,2013-08-06 16:16:00,
2013-08-06 11:21:00,87.3,51.2,28.76,ESE,123,0.0,0.0,29,0.00,,OVC260,0.00,VWS V14.00,2013-08-06 16:21:00,
2013-08-06 11:26:00,88.0,50.8,28.76,ESE,123,0.0,2.7,28,0.00,,OVC260,0.00,VWS V14.00,2013-08-06 16:26:00,
2013-08-06 11:31:00,87.4,50.4,28.73,SE,130,3.1,3.1,28,0.00,,OVC260,0.00,VWS V14.00,2013-08-06 16:31:00,
2013-08-06 11:36:00,85.5,49.6,28.73,ESE,119,0.0,4.0,29,0.00,,OVC260,0.00,VWS V14.00,2013-08-06 16:36:00,
2013-08-06 11:41:00,84.0,49.3,28.73,SE,133,0.0,3.1,30,0.00,,OVC260,0.00,VWS V14.00,2013-08-06 16:41:00,
2013-08-06 11:46:00,84.2,50.3,28.73,SE,138,3.6,5.4,31,0.00,,OVC260,0.00,VWS V14.00,2013-08-06 16:46:00,
2013-08-06 11:51:00,83.8,51.7,28.73,ENE,60,4.9,4.9,33,0.00,,OVC260,0.00,VWS V14.00,2013-08-06 16:51:00,
2013-08-06 11:56:00,85.1,51.1,28.67,South,181,2.7,6.3,31,0.00,,OVC260,0.00,VWS V14.00,2013-08-06 16:56:00,
2013-08-06 12:01:00,84.9,50.9,28.67,SE,134,0.0,0.0,31,0.00,,BKN250,0.00,VWS V14.00,2013-08-06 17:01:00,
2013-08-06 12:06:00,87.3,50.2,28.67,ENE,61,0.0,0.0,28,0.00,,BKN250,0.00,VWS V14.00,2013-08-06 17:06:00,
2013-08-06 12:11:00,87.4,49.4,28.70,NE,41,2.2,3.1,27,0.00,,BKN250,0.00,VWS V14.00,2013-08-06 17:11:00,
2013-08-06 12:16:00,87.1,50.1,28.70,NE,55,0.0,4.9,28,0.00,,BKN250,0.00,VWS V14.00,2013-08-06 17:16:00,
2013-08-06 12:21:00,89.4,49.0,28.70,NE,40,3.1,5.4,25,0.00,,BKN250,0.00,VWS V14.00,2013-08-06 17:21:00,
2013-08-06 12:26:00,90.7,46.7,28.67,ENE,62,2.7,5.8,22,0.00,,BKN250,0.00,VWS V14.00,2013-08-06 17:26:00,
2013-08-06 12:27:00,90.7,46.7,28.67,NE,52,0.0,5.8,22,0.00,,BKN250,0.00,VWS V14.00,2013-08-06 17:27:00,
2013-08-06 12:32:00,90.0,47.2,28.67,NE,39,2.7,3.1,23,0.00,,BKN250,0.00,VWS V14.00,2013-08-06 17:32:00,
2013-08-06 12:37:00,89.1,48.7,28.67,East,89,0.0,4.5,25,0.00,,BKN250,0.00,VWS V14.00,2013-08-06 17:37:00,
2013-08-06 12:42:00,91.8,45.0,28.70,North,0,3.6,4.9,20,0.00,,BKN250,0.00,VWS V14.00,2013-08-06 17:42:00,
2013-08-06 12:47:00,91.6,43.5,28.70,East,99,0.0,6.3,19,0.00,,BKN250,0.00,VWS V14.00,2013-08-06 17:47:00,
2013-08-06 12:52:00,90.5,44.0,28.70,ENE,73,0.0,3.6,20,0.00,,BKN250,0.00,VWS V14.00,2013-08-06 17:52:00,
2013-08-06 12:57:00,89.6,44.5,28.67,NE,48,0.0,5.4,21,0.00,,BKN250,0.00,VWS V14.00,2013-08-06 17:57:00,
2013-08-06 13:02:00,89.1,45.3,28.67,NE,47,2.7,4.9,22,0.00,,SCT260,0.00,VWS V14.00,2013-08-06 18:02:00,
2013-08-06 13:07:00,89.1,48.7,28.67,East,83,2.2,6.7,25,0.00,,SCT260,0.00,VWS V14.00,2013-08-06 18:07:00,
2013-08-06 13:12:00,91.0,49.3,28.67,NE,43,4.9,4.9,24,0.00,,SCT260,0.00,VWS V14.00,2013-08-06 18:12:00,
2013-08-06 13:17:00,93.4,45.0,28.67,ESE,123,2.2,5.8,19,0.00,,SCT260,0.00,VWS V14.00,2013-08-06 18:17:00,
2013-08-06 13:22:00,95.0,41.8,28.67,North,10,4.0,5.4,16,0.00,,SCT260,0.00,VWS V14.00,2013-08-06 18:22:00,
2013-08-06 13:27:00,93.9,44.0,28.67,West,268,0.0,5.4,18,0.00,,SCT260,0.00,VWS V14.00,2013-08-06 18:27:00,
2013-08-06 13:32:00,95.4,43.7,28.67,NE,39,4.0,4.9,17,0.00,,SCT260,0.00,VWS V14.00,2013-08-06 18:32:00,
2013-08-06 13:37:00,98.4,44.5,28.67,SE,133,3.1,4.9,16,0.00,,SCT260,0.00,VWS V14.00,2013-08-06 18:37:00,
2013-08-06 13:42:00,99.9,40.3,28.67,East,96,2.7,3.6,13,0.00,,SCT260,0.00,VWS V14.00,2013-08-06 18:42:00,
2013-08-06 13:47:00,100.0,40.4,28.67,ENE,73,0.0,5.4,13,0.00,,SCT260,0.00,VWS V14.00,2013-08-06 18:47:00,
2013-08-06 13:52:00,99.7,40.2,28.67,ENE,64,0.0,3.6,13,0.00,,SCT260,0.00,VWS V14.00,2013-08-06 18:52:00,
2013-08-06 13:57:00,99.5,33.4,28.67,SE,141,0.0,4.0,10,0.00,,SCT260,0.00,VWS V14.00,2013-08-06 18:57:00,
2013-08-06 14:02:00,101.7,35.0,28.67,NNW,336,2.7,6.3,10,0.00,,FEW260,0.00,VWS V14.00,2013-08-06 19:02:00,
2013-08-06 14:07:00,101.1,34.6,28.67,SE,144,3.6,6.3,10,0.00,,FEW260,0.00,VWS V14.00,2013-08-06 19:07:00,
2013-08-06 14:12:00,99.9,40.3,28.67,SE,142,0.0,0.0,13,0.00,,FEW260,0.00,VWS V14.00,2013-08-06 19:12:00,
2013-08-06 14:17:00,100.0,40.4,28.67,SE,134,0.0,0.0,13,0.00,,FEW260,0.00,VWS V14.00,2013-08-06 19:17:00,
2013-08-06 14:22:00,101.1,39.2,28.67,ESE,109,2.2,3.6,12,0.00,,FEW260,0.00,VWS V14.00,2013-08-06 19:22:00,
2013-08-06 14:27:00,100.6,38.8,28.67,East,82,3.1,5.8,12,0.00,,FEW260,0.00,VWS V14.00,2013-08-06 19:27:00,
2013-08-06 14:32:00,100.2,40.6,28.67,NE,53,5.4,5.4,13,0.00,,FEW260,0.00,VWS V14.00,2013-08-06 19:32:00,
2013-08-06 14:37:00,99.9,40.3,28.67,SE,127,0.0,6.3,13,0.00,,FEW260,0.00,VWS V14.00,2013-08-06 19:37:00,
2013-08-06 14:42:00,100.6,38.8,28.67,SE,138,4.0,4.9,12,0.00,,FEW260,0.00,VWS V14.00,2013-08-06 19:42:00,
2013-08-06 14:47:00,100.6,38.8,28.67,SE,138,4.0,6.3,12,0.00,,FEW260,0.00,VWS V14.00,2013-08-06 19:47:00,
2013-08-06 14:52:00,102.2,40.0,28.67,SE,144,4.9,4.9,12,0.00,,FEW260,0.00,VWS V14.00,2013-08-06 19:52:00,
2013-08-06 14:57:00,101.5,39.5,28.67,SE,129,2.7,6.3,12,0.00,,FEW260,0.00,VWS V14.00,2013-08-06 19:57:00,
2013-08-06 15:02:00,100.9,39.1,28.67,NNE,33,0.0,0.0,12,0.00,,FEW260,0.00,VWS V14.00,2013-08-06 20:02:00,
2013-08-06 15:07:00,99.5,40.0,28.67,SE,140,3.6,5.4,13,0.00,,FEW260,0.00,VWS V14.00,2013-08-06 20:07:00,
2013-08-06 15:12:00,99.9,40.3,28.67,NE,43,0.0,0.0,13,0.00,,FEW260,0.00,VWS V14.00,2013-08-06 20:12:00,
2013-08-06 15:17:00,100.4,38.7,28.67,SE,133,0.0,4.0,12,0.00,,FEW260,0.00,VWS V14.00,2013-08-06 20:17:00,
2013-08-06 15:22:00,99.5,40.0,28.67,SW,229,2.7,4.0,13,0.00,,FEW260,0.00,VWS V14.00,2013-08-06 20:22:00,
2013-08-06 15:27:00,101.8,39.8,28.67,SE,136,4.0,5.4,12,0.00,,FEW260,0.00,VWS V14.00,2013-08-06 20:27:00,
2013-08-06 15:32:00,102.7,40.5,28.67,SSE,154,2.7,4.0,12,0.00,,FEW260,0.00,VWS V14.00,2013-08-06 20:32:00,
2013-08-06 15:37:00,102.4,32.9,28.67,SE,125,4.0,4.0,9,0.00,,FEW260,0.00,VWS V14.00,2013-08-06 20:37:00,
2013-08-06 15:42:00,103.1,33.4,28.70,East,98,0.0,0.0,9,0.00,,FEW260,0.00,VWS V14.00,2013-08-06 20:42:00,
2013-08-06 15:47:00,104.9,34.8,28.70,ENE,72,0.0,4.9,9,0.00,,FEW260,0.00,VWS V14.00,2013-08-06 20:47:00,
2013-08-06 15:52:00,105.1,34.9,28.70,SSE,155,3.1,4.0,9,0.00,,FEW260,0.00,VWS V14.00,2013-08-06 20:52:00,
2013-08-06 15:57:00,104.4,34.4,28.67,SE,127,0.0,4.0,9,0.00,,FEW260,0.00,VWS V14.00,2013-08-06 20:57:00,
2013-08-06 16:02:00,102.2,32.8,28.67,SE,125,0.0,5.4,9,0.00,,FEW044,0.00,VWS V14.00,2013-08-06 21:02:00,
2013-08-06 16:07:00,103.1,33.4,28.67,SSE,147,0.0,5.4,9,0.00,,FEW044,0.00,VWS V14.00,2013-08-06 21:07:00,
2013-08-06 16:12:00,105.1,34.9,28.67,SE,125,0.0,0.0,9,0.00,,FEW044,0.00,VWS V14.00,2013-08-06 21:12:00,
2013-08-06 16:17:00,105.8,35.4,28.67,SE,125,4.0,4.0,9,0.00,,FEW044,0.00,VWS V14.00,2013-08-06 21:17:00,
2013-08-06 16:22:00,104.5,34.5,28.67,ESE,109,0.0,4.9,9,0.00,,FEW044,0.00,VWS V14.00,2013-08-06 21:22:00,
2013-08-06 16:27:00,106.5,36.0,28.67,ESE,104,0.0,4.9,9,0.00,,FEW044,0.00,VWS V14.00,2013-08-06 21:27:00,
2013-08-06 16:32:00,106.7,36.1,28.67,SE,128,0.0,3.1,9,0.00,,FEW044,0.00,VWS V14.00,2013-08-06 21:32:00,
2013-08-06 16:37:00,106.0,35.6,28.67,East,80,0.0,3.6,9,0.00,,FEW044,0.00,VWS V14.00,2013-08-06 21:37:00,
2013-08-06 16:42:00,104.7,34.6,28.67,SE,141,0.0,0.0,9,0.00,,FEW044,0.00,VWS V14.00,2013-08-06 21:42:00,
2013-08-06 16:47:00,102.7,33.2,28.67,SE,132,0.0,4.0,9,0.00,,FEW044,0.00,VWS V14.00,2013-08-06 21:47:00,
2013-08-06 16:52:00,99.5,33.4,28.67,South,190,0.0,4.9,10,0.00,,FEW044,0.00,VWS V14.00,2013-08-06 21:52:00,
2013-08-06 16:57:00,102.2,40.0,28.67,SSE,161,0.0,4.9,12,0.00,,FEW044,0.00,VWS V14.00,2013-08-06 21:57:00,
2013-08-06 17:02:00,103.8,34.0,28.67,SE,129,3.1,4.0,9,0.00,,FEW260,0.00,VWS V14.00,2013-08-06 22:02:00,
2013-08-06 17:07:00,98.6,39.3,28.67,SW,230,4.0,6.3,13,0.00,,FEW260,0.00,VWS V14.00,2013-08-06 22:07:00,
2013-08-06 17:12:00,94.6,38.1,28.67,West,269,0.0,5.4,14,0.00,,FEW260,0.00,VWS V14.00,2013-08-06 22:12:00,
2013-08-06 17:17:00,93.4,42.1,28.67,NNE,25,0.0,5.4,17,0.00,,FEW260,0.00,VWS V14.00,2013-08-06 22:17:00,
2013-08-06 17:22:00,93.9,42.5,28.67,NNE,25,0.0,0.0,17,0.00,,FEW260,0.00,VWS V14.00,2013-08-06 22:22:00,
2013-08-06 17:27:00,92.8,41.7,28.67,SW,232,3.1,3.6,17,0.00,,FEW260,0.00,VWS V14.00,2013-08-06 22:27:00,
2013-08-06 17:32:00,95.7,44.0,28.67,SW,233,0.0,0.0,17,0.00,,FEW260,0.00,VWS V14.00,2013-08-06 22:32:00,
2013-08-06 17:37:00,99.3,45.3,28.67,SSW,198,0.0,0.0,16,0.00,,FEW260,0.00,VWS V14.00,2013-08-06 22:37:00,
2013-08-06 17:42:00,101.3,45.1,28.67,SSW,201,0.0,0.0,15,0.00,,FEW260,0.00,VWS V14.00,2013-08-06 22:42:00,
2013-08-06 17:47:00,97.9,38.8,28.67,West,274,0.0,3.6,13,0.00,,FEW260,0.00,VWS V14.00,2013-08-06 22:47:00,
2013-08-06 17:52:00,94.5,43.0,28.67,West,274,0.0,0.0,17,0.00,,FEW260,0.00,VWS V14.00,2013-08-06 22:52:00,
2013-08-06 17:57:00,92.1,42.6,28.67,West,274,0.0,0.0,18,0.00,,FEW260,0.00,VWS V14.00,2013-08-06 22:57:00,
2013-08-06 18:02:00,90.7,44.1,28.67,West,274,0.0,0.0,20,0.00,,BKN095,0.00,VWS V14.00,2013-08-06 23:02:00,
2013-08-06 18:07:00,90.5,44.0,28.67,West,274,0.0,0.0,20,0.00,,BKN095,0.00,VWS V14.00,2013-08-06 23:07:00,
2013-08-06 18:12:00,90.3,43.8,28.67,West,274,0.0,0.0,20,0.00,,BKN095,0.00,VWS V14.00,2013-08-06 23:12:00,
2013-08-06 18:17:00,90.7,44.1,28.67,West,274,0.0,0.0,20,0.00,,BKN095,0.00,VWS V14.00,2013-08-06 23:17:00,
2013-08-06 18:22:00,91.0,43.1,28.67,West,274,0.0,0.0,19,0.00,,BKN095,0.00,VWS V14.00,2013-08-06 23:22:00,
2013-08-06 18:27:00,90.1,43.7,28.67,West,274,0.0,0.0,20,0.00,,BKN095,0.00,VWS V14.00,2013-08-06 23:27:00,
2013-08-06 18:32:00,88.9,45.2,28.67,West,274,0.0,0.0,22,0.00,,BKN095,0.00,VWS V14.00,2013-08-06 23:32:00,
2013-08-06 18:37:00,88.3,44.7,28.67,West,274,0.0,0.0,22,0.00,,BKN095,0.00,VWS V14.00,2013-08-06 23:37:00,
2013-08-06 18:42:00,88.0,44.4,28.67,West,274,0.0,0.0,22,0.00,,BKN095,0.00,VWS V14.00,2013-08-06 23:42:00,
2013-08-06 18:47:00,88.3,44.7,28.67,West,274,0.0,0.0,22,0.00,,BKN095,0.00,VWS V14.00,2013-08-06 23:47:00,
2013-08-06 18:52:00,88.7,45.0,28.67,West,274,0.0,0.0,22,0.00,,BKN095,0.00,VWS V14.00,2013-08-06 23:52:00,
2013-08-06 18:57:00,88.5,44.9,28.64,West,274,0.0,0.0,22,0.00,,BKN070,0.00,VWS V14.00,2013-08-06 23:57:00,
2013-08-06 19:02:00,88.3,44.7,28.64,West,274,0.0,0.0,22,0.00,,OVC070,0.00,VWS V14.00,2013-08-07 00:02:00,
2013-08-06 19:07:00,88.3,45.9,28.64,West,281,0.0,0.0,23,0.00,,OVC070,0.00,VWS V14.00,2013-08-07 00:07:00,
2013-08-06 19:12:00,88.0,48.8,28.67,ESE,118,0.0,0.0,26,0.00,,OVC070,0.00,VWS V14.00,2013-08-07 00:12:00,
2013-08-06 19:17:00,87.1,51.0,28.67,SE,136,0.0,0.0,29,0.00,,OVC070,0.00,VWS V14.00,2013-08-07 00:17:00,
2013-08-06 19:22:00,85.6,50.7,28.67,ESE,121,2.7,5.8,30,0.00,,OVC070,0.00,VWS V14.00,2013-08-07 00:22:00,
2013-08-06 19:27:00,83.8,46.3,28.67,SE,134,4.9,5.8,27,0.00,,OVC070,0.00,VWS V14.00,2013-08-07 00:27:00,
2013-08-06 19:32:00,81.7,40.3,28.67,East,86,2.7,3.6,23,0.00,,OVC070,0.00,VWS V14.00,2013-08-07 00:32:00,
2013-08-06 19:37:00,79.9,42.0,28.67,NE,42,0.0,3.6,26,0.00,,OVC070,0.00,VWS V14.00,2013-08-07 00:37:00,
2013-08-06 19:42:00,79.3,45.2,28.67,North,0,0.0,0.0,30,0.00,,OVC070,0.00,VWS V14.00,2013-08-07 00:42:00,
2013-08-06 19:47:00,78.8,43.0,28.67,East,90,0.0,0.0,28,0.00,,OVC070,0.00,VWS V14.00,2013-08-07 00:47:00,
2013-08-06 19:52:00,78.4,44.5,28.67,NE,39,0.0,0.0,30,0.00,,OVC070,0.00,VWS V14.00,2013-08-07 00:52:00,
2013-08-06 19:57:00,77.9,44.9,28.67,NNE,13,0.0,0.0,31,0.00,,OVC070,0.00,VWS V14.00,2013-08-07 00:57:00,
2013-08-06 20:02:00,77.7,44.7,28.67,ENE,59,3.1,4.5,31,0.00,,,0.00,VWS V14.00,2013-08-07 01:02:00,
2013-08-06 20:07:00,76.6,46.2,28.67,NNE,31,4.0,5.4,34,0.00,,,0.00,VWS V14.00,2013-08-07 01:07:00,
2013-08-06 20:12:00,75.6,49.6,28.67,North,357,2.7,5.8,40,0.00,,,0.00,VWS V14.00,2013-08-07 01:12:00,
2013-08-06 20:17:00,74.8,49.6,28.67,NE,38,4.0,5.8,41,0.00,,,0.00,VWS V14.00,2013-08-07 01:17:00,
2013-08-06 20:22:00,74.5,49.9,28.67,NNE,32,0.0,3.1,42,0.00,,,0.00,VWS V14.00,2013-08-07 01:22:00,
2013-08-06 20:27:00,74.3,50.4,28.70,NNE,31,4.0,4.9,43,0.00,,,0.00,VWS V14.00,2013-08-07 01:27:00,
2013-08-06 20:32:00,73.9,51.3,28.70,NE,37,0.0,3.1,45,0.00,,,0.00,VWS V14.00,2013-08-07 01:32:00,
2013-08-06 20:37:00,73.4,52.5,28.70,SE,141,2.2,4.0,48,0.00,,OVC080,0.00,VWS V14.00,2013-08-07 01:37:00,
2013-08-06 20:42:00,73.0,52.8,28.70,ESE,119,0.0,2.2,49,0.00,,OVC080,0.00,VWS V14.00,2013-08-07 01:42:00,
2013-08-06 20:47:00,72.9,54.2,28.70,ENE,77,3.1,3.6,52,0.00,,OVC080,0.00,VWS V14.00,2013-08-07 01:47:00,
2013-08-06 20:52:00,72.5,54.9,28.70,NE,42,0.0,3.6,54,0.00,,OVC080,0.00,VWS V14.00,2013-08-07 01:52:00,
2013-08-06 20:57:00,72.1,55.1,28.70,ENE,60,0.0,3.6,55,0.00,,OVC080,0.00,VWS V14.00,2013-08-07 01:57:00,
2013-08-06 21:02:00,72.0,55.4,28.70,North,6,0.0,0.0,56,0.00,,BKN090,0.00,VWS V14.00,2013-08-07 02:02:00,
2013-08-06 21:07:00,72.0,55.4,28.70,NE,37,0.0,3.6,56,0.00,,BKN090,0.00,VWS V14.00,2013-08-07 02:07:00,
2013-08-06 21:12:00,72.0,54.9,28.67,NNE,23,0.0,2.7,55,0.00,,BKN090,0.00,VWS V14.00,2013-08-07 02:12:00,
2013-08-06 21:17:00,71.8,54.3,28.67,ENE,63,3.6,3.6,54,0.00,,BKN090,0.00,VWS V14.00,2013-08-07 02:17:00,
2013-08-06 21:22:00,72.0,53.4,28.67,NE,46,0.0,2.7,52,0.00,,BKN090,0.00,VWS V14.00,2013-08-07 02:22:00,
2013-08-06 21:27:00,72.0,53.4,28.70,NE,37,0.0,3.1,52,0.00,,BKN090,0.00,VWS V14.00,2013-08-07 02:27:00,
2013-08-06 21:32:00,72.1,53.6,28.70,NE,37,0.0,0.0,52,0.00,,BKN090,0.00,VWS V14.00,2013-08-07 02:32:00,
2013-08-06 21:37:00,72.3,52.7,28.70,NNE,27,0.0,0.0,50,0.00,,BKN090,0.00,VWS V14.00,2013-08-07 02:37:00,
2013-08-06 21:42:00,72.3,52.7,28.70,NNE,27,0.0,0.0,50,0.00,,BKN090,0.00,VWS V14.00,2013-08-07 02:42:00,
2013-08-06 21:47:00,72.3,52.7,28.70,East,84,0.0,5.8,50,0.00,,BKN090,0.00,VWS V14.00,2013-08-07 02:47:00,
2013-08-06 21:52:00,72.1,52.5,28.70,NNW,334,2.2,2.2,50,0.00,,BKN090,0.00,VWS V14.00,2013-08-07 02:52:00,
2013-08-06 21:57:00,72.0,52.9,28.70,NNW,334,0.0,2.2,51,0.00,,,0.00,VWS V14.00,2013-08-07 02:57:00,
2013-08-06 22:02:00,72.0,53.4,28.70,NE,50,0.0,2.7,52,0.00,,,0.00,VWS V14.00,2013-08-07 03:02:00,
2013-08-06 22:07:00,72.0,53.9,28.70,NE,50,0.0,2.7,53,0.00,,,0.00,VWS V14.00,2013-08-07 03:07:00,
2013-08-06 22:12:00,71.8,53.2,28.70,NE,50,0.0,0.0,52,0.00,,,0.00,VWS V14.00,2013-08-07 03:12:00,
2013-08-06 22:17:00,71.6,53.6,28.70,NE,50,0.0,0.0,53,0.00,,,0.00,VWS V14.00,2013-08-07 03:17:00,
2013-08-06 22:22:00,71.4,53.4,28.70,NE,50,0.0,0.0,53,0.00,,,0.00,VWS V14.00,2013-08-07 03:22:00,
2013-08-06 22:27:00,71.1,53.1,28.70,NE,50,0.0,0.0,53,0.00,,SCT095,0.00,VWS V14.00,2013-08-07 03:27:00,
2013-08-06 22:32:00,70.9,52.9,28.70,NE,50,0.0,0.0,53,0.00,,SCT095,0.00,VWS V14.00,2013-08-07 03:32:00,
2013-08-06 22:37:00,70.7,53.3,28.70,NE,50,0.0,0.0,54,0.00,,SCT095,0.00,VWS V14.00,2013-08-07 03:37:00,
2013-08-06 22:42:00,70.7,53.8,28.70,NE,50,0.0,0.0,55,0.00,,SCT095,0.00,VWS V14.00,2013-08-07 03:42:00,
2013-08-06 22:47:00,70.7,53.8,28.70,NE,50,0.0,0.0,55,0.00,,SCT095,0.00,VWS V14.00,2013-08-07 03:47:00,
2013-08-06 22:52:00,71.1,55.1,28.70,NE,50,0.0,0.0,57,0.00,,SCT095,0.00,VWS V14.00,2013-08-07 03:52:00,
2013-08-06 22:57:00,71.2,54.8,28.70,NE,50,0.0,0.0,56,0.00,,SCT095,0.00,VWS V14.00,2013-08-07 03:57:00,
2013-08-06 23:01:00,71.4,54.9,28.70,NE,50,0.0,0.0,56,0.00,,SCT080,0.00,VWS V14.00,2013-08-07 04:01:00,
2013-08-06 23:06:00,71.4,54.9,28.70,ENE,59,0.0,4.0,56,0.00,,SCT080,0.00,VWS V14.00,2013-08-07 04:06:00,
2013-08-06 23:11:00,71.6,54.6,28.70,East,82,0.0,3.6,55,0.00,,SCT080,0.00,VWS V14.00,2013-08-07 04:11:00,
2013-08-06 23:16:00,71.8,54.8,28.70,NNE,15,0.0,5.8,55,0.00,,SCT080,0.00,VWS V14.00,2013-08-07 04:16:00,
2013-08-06 23:21:00,71.8,54.8,28.70,ENE,76,0.0,3.1,55,0.00,,SCT080,0.00,VWS V14.00,2013-08-07 04:21:00,
2013-08-06 23:26:00,71.8,54.8,28.70,East,80,0.0,3.1,55,0.00,,SCT080,0.00,VWS V14.00,2013-08-07 04:26:00,
2013-08-06 23:31:00,71.6,54.1,28.70,East,86,0.0,0.0,54,0.00,,SCT080,0.00,VWS V14.00,2013-08-07 04:31:00,
2013-08-06 23:36:00,71.6,55.1,28.70,NE,43,0.0,5.4,56,0.00,,SCT080,0.00,VWS V14.00,2013-08-07 04:36:00,
2013-08-06 23:41:00,71.6,55.6,28.70,NE,47,0.0,0.0,57,0.00,,SCT080,0.00,VWS V14.00,2013-08-07 04:41:00,
2013-08-06 23:46:00,71.6,55.6,28.70,ESE,117,0.0,0.0,57,0.00,,SCT080,0.00,VWS V14.00,2013-08-07 04:46:00,
2013-08-06 23:51:00,71.8,55.8,28.70,NE,45,0.0,0.0,57,0.00,,SCT080,0.00,VWS V14.00,2013-08-07 04:51:00,
2013-08-06 23:56:00,71.8,55.3,28.70,NE,45,0.0,0.0,56,0.00,,SCT080,0.00,VWS V14.00,2013-08-07 04:56:00,